Methoni, Greece
Current Conditions -  °F | °C
As of 3:20 PM on Thursday 23 Oct 2014 (Local Time) from LGKL Reporting Station
Scattered Clouds Scattered Clouds  
Wind Chill: 68°   Ceiling: Unl
Heat Index: 68°   Visibility: 6mi
Dew Point: 48°   Wind: 8mph
Humidity: 49%   Direction: 310°NW
Pressure: 29.68"   Gusts: NA
Location:  36.82°N, 21.7°E
Report Text: LGKL 231220Z 31007KT 9999 SCT025 SCT045 20/09 Q1005
Loading
Personal Weather Stations






























Interactive Weather Map
Tropical Storm Tracking
New forecast layout! Learn more

10-Day Weather Forecast

Advertisements
Track Severe Weather on mobile